sensor_id;sensor_type;location;lat;lon;timestamp;temperature;humidity
4366;DHT22;2196;47.422;9.656;2024-01-10T00:00:21;-1.60;99.90
4366;DHT22;2196;47.422;9.656;2024-01-10T00:02:48;-1.60;99.90
4366;DHT22;2196;47.422;9.656;2024-01-10T00:05:15;-1.30;99.90
4366;DHT22;2196;47.422;9.656;2024-01-10T00:07:42;-1.40;99.90
4366;DHT22;2196;47.422;9.656;2024-01-10T00:10:09;-1.60;99.90
4366;DHT22;2196;47.422;9.656;2024-01-10T00:12:38;-1.70;99.90
4366;DHT22;2196;47.422;9.656;2024-01-10T00:15:05;-1.70;99.90
4366;DHT22;2196;47.422;9.656;2024-01-10T00:17:32;-1.60;99.90
4366;DHT22;2196;47.422;9.656;2024-01-10T00:19:59;-1.30;99.90
4366;DHT22;2196;47.422;9.656;2024-01-10T00:22:26;-1.40;99.90
4366;DHT22;2196;47.422;9.656;2024-01-10T00:24:53;-1.50;99.90
4366;DHT22;2196;47.422;9.656;2024-01-10T00:27:20;-1.30;99.90
4366;DHT22;2196;47.422;9.656;2024-01-10T00:29:48;-1.50;99.90
4366;DHT22;2196;47.422;9.656;2024-01-10T00:32:17;-1.10;99.90
4366;DHT22;2196;47.422;9.656;2024-01-10T00:34:44;-1.50;99.90
4366;DHT22;2196;47.422;9.656;2024-01-10T00:37:11;-1.50;99.90
4366;DHT22;2196;47.422;9.656;2024-01-10T00:39:38;-1.60;99.90
4366;DHT22;2196;47.422;9.656;2024-01-10T00:42:05;-1.40;99.90
4366;DHT22;2196;47.422;9.656;2024-01-10T00:44:32;-1.60;99.90
4366;DHT22;2196;47.422;9.656;2024-01-10T00:47:03;-1.60;99.90
4366;DHT22;2196;47.422;9.656;2024-01-10T00:49:30;-1.40;99.90
4366;DHT22;2196;47.422;9.656;2024-01-10T00:51:57;-1.60;99.90
4366;DHT22;2196;47.422;9.656;2024-01-10T00:54:24;-1.20;99.90
4366;DHT22;2196;47.422;9.656;2024-01-10T00:56:51;-1.10;99.90
4366;DHT22;2196;47.422;9.656;2024-01-10T00:59:18;-1.40;99.90
4366;DHT22;2196;47.422;9.656;2024-01-10T01:01:45;-1.20;99.90
4366;DHT22;2196;47.422;9.656;2024-01-10T01:04:13;-1.60;99.90
4366;DHT22;2196;47.422;9.656;2024-01-10T01:06:40;-1.50;99.90
4366;DHT22;2196;47.422;9.656;2024-01-10T01:09:07;-1.30;99.90
4366;DHT22;2196;47.422;9.656;2024-01-10T01:11:34;-1.60;99.90
4366;DHT22;2196;47.422;9.656;2024-01-10T01:14:01;-1.50;99.90
4366;DHT22;2196;47.422;9.656;2024-01-10T01:16:28;-1.20;99.90
4366;DHT22;2196;47.422;9.656;2024-01-10T01:18:55;-1.60;99.90
4366;DHT22;2196;47.422;9.656;2024-01-10T01:21:24;-1.60;99.90
4366;DHT22;2196;47.422;9.656;2024-01-10T01:23:51;-1.40;99.90
4366;DHT22;2196;47.422;9.656;2024-01-10T01:26:17;-1.30;99.90
4366;DHT22;2196;47.422;9.656;2024-01-10T01:28:44;-1.50;99.90
4366;DHT22;2196;47.422;9.656;2024-01-10T01:31:11;-1.60;99.90
4366;DHT22;2196;47.422;9.656;2024-01-10T01:33:38;-1.80;99.90
4366;DHT22;2196;47.422;9.656;2024-01-10T01:36:06;-1.60;99.90
4366;DHT22;2196;47.422;9.656;2024-01-10T01:38:35;-1.80;99.90
4366;DHT22;2196;47.422;9.656;2024-01-10T01:41:02;-1.40;99.90
4366;DHT22;2196;47.422;9.656;2024-01-10T01:43:31;-1.80;99.90
4366;DHT22;2196;47.422;9.656;2024-01-10T01:45:58;-1.80;99.90
4366;DHT22;2196;47.422;9.656;2024-01-10T01:48:26;-1.70;99.90
4366;DHT22;2196;47.422;9.656;2024-01-10T01:50:56;-1.70;99.90
4366;DHT22;2196;47.422;9.656;2024-01-10T01:53:23;-1.60;99.90
4366;DHT22;2196;47.422;9.656;2024-01-10T01:55:52;-1.20;99.90
4366;DHT22;2196;47.422;9.656;2024-01-10T01:58:22;-1.40;99.90
4366;DHT22;2196;47.422;9.656;2024-01-10T02:00:50;-1.50;99.90
4366;DHT22;2196;47.422;9.656;2024-01-10T02:03:18;-1.40;99.90
4366;DHT22;2196;47.422;9.656;2024-01-10T02:05:46;-1.40;99.90
4366;DHT22;2196;47.422;9.656;2024-01-10T02:08:13;-1.50;99.90
4366;DHT22;2196;47.422;9.656;2024-01-10T02:10:40;-1.30;99.90
4366;DHT22;2196;47.422;9.656;2024-01-10T02:13:09;-1.70;99.90
4366;DHT22;2196;47.422;9.656;2024-01-10T02:15:37;-1.60;99.90
4366;DHT22;2196;47.422;9.656;2024-01-10T02:18:05;-1.60;99.90
4366;DHT22;2196;47.422;9.656;2024-01-10T02:20:32;-1.40;99.90
4366;DHT22;2196;47.422;9.656;2024-01-10T02:22:59;-1.50;99.90
4366;DHT22;2196;47.422;9.656;2024-01-10T02:25:28;-1.30;99.90
4366;DHT22;2196;47.422;9.656;2024-01-10T02:27:54;-1.70;99.90
4366;DHT22;2196;47.422;9.656;2024-01-10T02:30:21;-1.40;99.90
4366;DHT22;2196;47.422;9.656;2024-01-10T02:32:48;-1.40;99.90
4366;DHT22;2196;47.422;9.656;2024-01-10T02:35:15;-1.70;99.90
4366;DHT22;2196;47.422;9.656;2024-01-10T02:37:42;-1.60;99.90
4366;DHT22;2196;47.422;9.656;2024-01-10T02:40:11;-1.60;99.90
4366;DHT22;2196;47.422;9.656;2024-01-10T02:42:39;-1.40;99.90
4366;DHT22;2196;47.422;9.656;2024-01-10T02:45:07;-1.50;99.90
4366;DHT22;2196;47.422;9.656;2024-01-10T02:47:34;-1.50;99.90
4366;DHT22;2196;47.422;9.656;2024-01-10T02:50:02;-1.50;99.90
4366;DHT22;2196;47.422;9.656;2024-01-10T02:52:29;-1.60;99.90
4366;DHT22;2196;47.422;9.656;2024-01-10T02:54:56;-1.30;99.90
4366;DHT22;2196;47.422;9.656;2024-01-10T02:57:24;-1.60;99.90
4366;DHT22;2196;47.422;9.656;2024-01-10T02:59:52;-1.20;99.90
4366;DHT22;2196;47.422;9.656;2024-01-10T03:02:19;-1.30;99.90
4366;DHT22;2196;47.422;9.656;2024-01-10T03:04:47;-1.60;99.90
4366;DHT22;2196;47.422;9.656;2024-01-10T03:07:14;-1.60;99.90
4366;DHT22;2196;47.422;9.656;2024-01-10T03:09:41;-1.60;99.90
4366;DHT22;2196;47.422;9.656;2024-01-10T03:12:09;-1.50;99.90
4366;DHT22;2196;47.422;9.656;2024-01-10T03:14:37;-1.20;99.90
4366;DHT22;2196;47.422;9.656;2024-01-10T03:17:08;-1.20;99.90
4366;DHT22;2196;47.422;9.656;2024-01-10T03:19:35;-1.40;99.90
4366;DHT22;2196;47.422;9.656;2024-01-10T03:22:09;-1.60;99.90
4366;DHT22;2196;47.422;9.656;2024-01-10T03:24:35;-1.50;99.90
4366;DHT22;2196;47.422;9.656;2024-01-10T03:27:04;-1.50;99.90
4366;DHT22;2196;47.422;9.656;2024-01-10T03:29:31;-1.40;99.90
4366;DHT22;2196;47.422;9.656;2024-01-10T03:31:58;-1.20;99.90
4366;DHT22;2196;47.422;9.656;2024-01-10T03:34:26;-1.50;99.90
4366;DHT22;2196;47.422;9.656;2024-01-10T03:36:53;-1.20;99.90
4366;DHT22;2196;47.422;9.656;2024-01-10T03:39:20;-1.50;99.90
4366;DHT22;2196;47.422;9.656;2024-01-10T03:41:47;-1.10;99.90
4366;DHT22;2196;47.422;9.656;2024-01-10T03:44:14;-1.40;99.90
4366;DHT22;2196;47.422;9.656;2024-01-10T03:46:41;-1.50;99.90
4366;DHT22;2196;47.422;9.656;2024-01-10T03:49:08;-1.30;99.90
4366;DHT22;2196;47.422;9.656;2024-01-10T03:51:37;-1.50;99.90
4366;DHT22;2196;47.422;9.656;2024-01-10T03:54:06;-1.50;99.90
4366;DHT22;2196;47.422;9.656;2024-01-10T03:56:33;-1.40;99.90
4366;DHT22;2196;47.422;9.656;2024-01-10T03:59:00;-1.40;99.90
4366;DHT22;2196;47.422;9.656;2024-01-10T04:01:27;-1.30;99.90
4366;DHT22;2196;47.422;9.656;2024-01-10T04:03:54;-1.40;99.90
4366;DHT22;2196;47.422;9.656;2024-01-10T04:06:21;-1.10;99.90
4366;DHT22;2196;47.422;9.656;2024-01-10T04:08:50;-1.10;99.90
4366;DHT22;2196;47.422;9.656;2024-01-10T04:11:17;-1.40;99.90
4366;DHT22;2196;47.422;9.656;2024-01-10T04:13:44;-1.30;99.90
4366;DHT22;2196;47.422;9.656;2024-01-10T04:16:11;-0.90;99.90
4366;DHT22;2196;47.422;9.656;2024-01-10T04:18:38;-1.20;99.90
4366;DHT22;2196;47.422;9.656;2024-01-10T04:21:06;-0.90;99.90
4366;DHT22;2196;47.422;9.656;2024-01-10T04:23:34;-1.20;99.90
4366;DHT22;2196;47.422;9.656;2024-01-10T04:26:02;-1.10;99.90
4366;DHT22;2196;47.422;9.656;2024-01-10T04:28:29;-1.00;99.90
4366;DHT22;2196;47.422;9.656;2024-01-10T04:30:56;-1.10;99.90
4366;DHT22;2196;47.422;9.656;2024-01-10T04:33:23;-1.10;99.90
4366;DHT22;2196;47.422;9.656;2024-01-10T04:35:50;-0.90;99.90
4366;DHT22;2196;47.422;9.656;2024-01-10T04:38:17;-1.30;99.90
4366;DHT22;2196;47.422;9.656;2024-01-10T04:40:44;-1.20;99.90
4366;DHT22;2196;47.422;9.656;2024-01-10T04:43:12;-1.10;99.90
4366;DHT22;2196;47.422;9.656;2024-01-10T04:45:39;-1.00;99.90
4366;DHT22;2196;47.422;9.656;2024-01-10T04:48:07;-1.10;99.90
4366;DHT22;2196;47.422;9.656;2024-01-10T04:50:34;-1.00;99.90
4366;DHT22;2196;47.422;9.656;2024-01-10T04:53:01;-1.00;99.90
4366;DHT22;2196;47.422;9.656;2024-01-10T04:55:28;-1.00;99.90
4366;DHT22;2196;47.422;9.656;2024-01-10T04:57:55;-1.10;99.90
4366;DHT22;2196;47.422;9.656;2024-01-10T05:00:23;-0.90;99.90
4366;DHT22;2196;47.422;9.656;2024-01-10T05:02:50;-0.90;99.90
4366;DHT22;2196;47.422;9.656;2024-01-10T05:05:17;-1.20;99.90
4366;DHT22;2196;47.422;9.656;2024-01-10T05:07:49;-1.20;99.90
4366;DHT22;2196;47.422;9.656;2024-01-10T05:10:16;-1.20;99.90
4366;DHT22;2196;47.422;9.656;2024-01-10T05:12:43;-1.30;99.90
4366;DHT22;2196;47.422;9.656;2024-01-10T05:15:10;-1.00;99.90
4366;DHT22;2196;47.422;9.656;2024-01-10T05:17:38;-1.30;99.90
4366;DHT22;2196;47.422;9.656;2024-01-10T05:20:06;-1.30;99.90
4366;DHT22;2196;47.422;9.656;2024-01-10T05:22:34;-0.90;99.90
4366;DHT22;2196;47.422;9.656;2024-01-10T05:25:02;-1.30;99.90
4366;DHT22;2196;47.422;9.656;2024-01-10T05:27:30;-1.30;99.90
4366;DHT22;2196;47.422;9.656;2024-01-10T05:29:56;-1.10;99.90
4366;DHT22;2196;47.422;9.656;2024-01-10T05:32:25;-1.30;99.90
4366;DHT22;2196;47.422;9.656;2024-01-10T05:34:53;-1.30;99.90
4366;DHT22;2196;47.422;9.656;2024-01-10T05:37:20;-1.00;99.90
4366;DHT22;2196;47.422;9.656;2024-01-10T05:39:48;-1.20;99.90
4366;DHT22;2196;47.422;9.656;2024-01-10T05:42:15;-1.30;99.90
4366;DHT22;2196;47.422;9.656;2024-01-10T05:44:42;-1.30;99.90
4366;DHT22;2196;47.422;9.656;2024-01-10T05:47:09;-1.30;99.90
4366;DHT22;2196;47.422;9.656;2024-01-10T05:49:36;-0.90;99.90
4366;DHT22;2196;47.422;9.656;2024-01-10T05:52:08;-0.90;99.90
4366;DHT22;2196;47.422;9.656;2024-01-10T05:54:35;-1.00;99.90
4366;DHT22;2196;47.422;9.656;2024-01-10T05:57:04;-1.10;99.90
4366;DHT22;2196;47.422;9.656;2024-01-10T05:59:31;-1.20;99.90
4366;DHT22;2196;47.422;9.656;2024-01-10T06:01:58;-1.20;99.90
4366;DHT22;2196;47.422;9.656;2024-01-10T06:04:25;-0.80;99.90
4366;DHT22;2196;47.422;9.656;2024-01-10T06:06:53;-1.30;99.90
4366;DHT22;2196;47.422;9.656;2024-01-10T06:09:21;-0.90;99.90
4366;DHT22;2196;47.422;9.656;2024-01-10T06:11:48;-1.10;99.90
4366;DHT22;2196;47.422;9.656;2024-01-10T06:14:16;-1.00;99.90
4366;DHT22;2196;47.422;9.656;2024-01-10T06:16:43;-0.90;99.90
4366;DHT22;2196;47.422;9.656;2024-01-10T06:19:10;-1.20;99.90
4366;DHT22;2196;47.422;9.656;2024-01-10T06:21:37;-1.20;99.90
4366;DHT22;2196;47.422;9.656;2024-01-10T06:24:05;-0.90;99.90
4366;DHT22;2196;47.422;9.656;2024-01-10T06:26:33;-1.30;99.90
4366;DHT22;2196;47.422;9.656;2024-01-10T06:29:00;-1.30;99.90
4366;DHT22;2196;47.422;9.656;2024-01-10T06:31:27;-1.10;99.90
4366;DHT22;2196;47.422;9.656;2024-01-10T06:33:55;-1.00;99.90
4366;DHT22;2196;47.422;9.656;2024-01-10T06:36:25;-1.30;99.90
4366;DHT22;2196;47.422;9.656;2024-01-10T06:38:52;-1.20;99.90
4366;DHT22;2196;47.422;9.656;2024-01-10T06:41:21;-1.00;99.90
4366;DHT22;2196;47.422;9.656;2024-01-10T06:43:51;-1.30;99.90
4366;DHT22;2196;47.422;9.656;2024-01-10T06:46:18;-1.40;99.90
4366;DHT22;2196;47.422;9.656;2024-01-10T06:48:46;-1.40;99.90
4366;DHT22;2196;47.422;9.656;2024-01-10T06:51:13;-1.20;99.90
4366;DHT22;2196;47.422;9.656;2024-01-10T06:53:40;-1.60;99.90
4366;DHT22;2196;47.422;9.656;2024-01-10T06:56:07;-1.40;99.90
4366;DHT22;2196;47.422;9.656;2024-01-10T06:58:36;-1.30;99.90
4366;DHT22;2196;47.422;9.656;2024-01-10T07:01:05;-1.50;99.90
4366;DHT22;2196;47.422;9.656;2024-01-10T07:03:32;-1.70;99.90
4366;DHT22;2196;47.422;9.656;2024-01-10T07:06:00;-1.50;99.90
4366;DHT22;2196;47.422;9.656;2024-01-10T07:08:27;-1.60;99.90
4366;DHT22;2196;47.422;9.656;2024-01-10T07:10:56;-1.40;99.90
4366;DHT22;2196;47.422;9.656;2024-01-10T07:13:23;-1.70;99.90
4366;DHT22;2196;47.422;9.656;2024-01-10T07:15:50;-1.80;99.90
4366;DHT22;2196;47.422;9.656;2024-01-10T07:18:19;-1.50;99.90
4366;DHT22;2196;47.422;9.656;2024-01-10T07:20:46;-1.60;99.90
4366;DHT22;2196;47.422;9.656;2024-01-10T07:23:13;-1.40;99.90
4366;DHT22;2196;47.422;9.656;2024-01-10T07:25:40;-1.40;99.90
4366;DHT22;2196;47.422;9.656;2024-01-10T07:28:07;-1.60;99.90
4366;DHT22;2196;47.422;9.656;2024-01-10T07:30:34;-1.60;99.90
4366;DHT22;2196;47.422;9.656;2024-01-10T07:33:01;-1.80;99.90
4366;DHT22;2196;47.422;9.656;2024-01-10T07:35:29;-1.70;99.90
4366;DHT22;2196;47.422;9.656;2024-01-10T07:37:56;-1.70;99.90
4366;DHT22;2196;47.422;9.656;2024-01-10T07:40:23;-1.70;99.90
4366;DHT22;2196;47.422;9.656;2024-01-10T07:42:50;-1.60;99.90
4366;DHT22;2196;47.422;9.656;2024-01-10T07:45:17;-1.70;99.90
4366;DHT22;2196;47.422;9.656;2024-01-10T07:47:44;-1.40;99.90
4366;DHT22;2196;47.422;9.656;2024-01-10T07:50:12;-1.20;99.90
4366;DHT22;2196;47.422;9.656;2024-01-10T07:52:43;-1.40;99.90
4366;DHT22;2196;47.422;9.656;2024-01-10T07:55:11;-1.40;99.90
4366;DHT22;2196;47.422;9.656;2024-01-10T07:57:39;-1.40;99.90
4366;DHT22;2196;47.422;9.656;2024-01-10T08:00:08;-1.30;99.90
4366;DHT22;2196;47.422;9.656;2024-01-10T08:02:36;-1.20;99.90
4366;DHT22;2196;47.422;9.656;2024-01-10T08:05:03;-1.20;99.90
4366;DHT22;2196;47.422;9.656;2024-01-10T08:07:34;-1.40;99.90
4366;DHT22;2196;47.422;9.656;2024-01-10T08:10:04;-1.30;99.90
4366;DHT22;2196;47.422;9.656;2024-01-10T08:12:31;-0.90;99.90
4366;DHT22;2196;47.422;9.656;2024-01-10T08:14:58;-1.00;99.90
4366;DHT22;2196;47.422;9.656;2024-01-10T08:17:25;-1.00;99.90
4366;DHT22;2196;47.422;9.656;2024-01-10T08:19:52;-0.80;99.90
4366;DHT22;2196;47.422;9.656;2024-01-10T08:22:19;-0.30;99.90
4366;DHT22;2196;47.422;9.656;2024-01-10T08:24:48;-0.20;99.90
4366;DHT22;2196;47.422;9.656;2024-01-10T08:27:16;-0.50;99.90
4366;DHT22;2196;47.422;9.656;2024-01-10T08:29:43;-0.10;99.90
4366;DHT22;2196;47.422;9.656;2024-01-10T08:32:10;0.20;99.90
4366;DHT22;2196;47.422;9.656;2024-01-10T08:34:37;0.50;99.90
4366;DHT22;2196;47.422;9.656;2024-01-10T08:37:07;0.90;99.90
4366;DHT22;2196;47.422;9.656;2024-01-10T08:39:34;1.20;99.90
4366;DHT22;2196;47.422;9.656;2024-01-10T08:42:02;1.30;99.90
4366;DHT22;2196;47.422;9.656;2024-01-10T08:44:30;1.30;99.90
4366;DHT22;2196;47.422;9.656;2024-01-10T08:47:00;1.20;99.90
4366;DHT22;2196;47.422;9.656;2024-01-10T08:49:27;1.10;99.90
4366;DHT22;2196;47.422;9.656;2024-01-10T08:51:54;1.10;99.90
4366;DHT22;2196;47.422;9.656;2024-01-10T08:54:21;1.10;99.90
4366;DHT22;2196;47.422;9.656;2024-01-10T08:56:48;1.10;99.90
4366;DHT22;2196;47.422;9.656;2024-01-10T08:59:15;1.00;99.90
4366;DHT22;2196;47.422;9.656;2024-01-10T09:01:47;0.90;99.90
4366;DHT22;2196;47.422;9.656;2024-01-10T09:04:14;0.80;99.90
4366;DHT22;2196;47.422;9.656;2024-01-10T09:06:41;0.50;99.90
4366;DHT22;2196;47.422;9.656;2024-01-10T09:09:08;0.60;99.90
4366;DHT22;2196;47.422;9.656;2024-01-10T09:11:35;0.60;99.90
4366;DHT22;2196;47.422;9.656;2024-01-10T09:14:02;0.60;99.90
4366;DHT22;2196;47.422;9.656;2024-01-10T09:16:29;0.80;99.90
4366;DHT22;2196;47.422;9.656;2024-01-10T09:18:57;0.70;99.90
4366;DHT22;2196;47.422;9.656;2024-01-10T09:21:25;0.60;99.90
4366;DHT22;2196;47.422;9.656;2024-01-10T09:23:52;0.70;99.90
4366;DHT22;2196;47.422;9.656;2024-01-10T09:26:21;0.70;99.90
4366;DHT22;2196;47.422;9.656;2024-01-10T09:28:48;0.80;99.90
4366;DHT22;2196;47.422;9.656;2024-01-10T09:31:15;0.70;99.90
4366;DHT22;2196;47.422;9.656;2024-01-10T09:33:42;0.80;99.90
4366;DHT22;2196;47.422;9.656;2024-01-10T09:36:11;0.70;99.90
4366;DHT22;2196;47.422;9.656;2024-01-10T09:38:38;0.60;99.90
4366;DHT22;2196;47.422;9.656;2024-01-10T09:41:05;0.80;99.90
4366;DHT22;2196;47.422;9.656;2024-01-10T09:43:33;0.70;99.90
4366;DHT22;2196;47.422;9.656;2024-01-10T09:46:01;0.90;99.90
4366;DHT22;2196;47.422;9.656;2024-01-10T09:48:29;0.90;99.90
4366;DHT22;2196;47.422;9.656;2024-01-10T09:50:57;0.80;99.90
4366;DHT22;2196;47.422;9.656;2024-01-10T09:53:26;0.90;99.90
4366;DHT22;2196;47.422;9.656;2024-01-10T09:55:55;0.90;99.90
4366;DHT22;2196;47.422;9.656;2024-01-10T09:58:23;0.80;99.90
4366;DHT22;2196;47.422;9.656;2024-01-10T10:00:51;0.70;99.90
4366;DHT22;2196;47.422;9.656;2024-01-10T10:03:18;0.70;99.90
4366;DHT22;2196;47.422;9.656;2024-01-10T10:05:46;0.70;99.90
4366;DHT22;2196;47.422;9.656;2024-01-10T10:08:13;0.80;99.90
4366;DHT22;2196;47.422;9.656;2024-01-10T10:10:48;0.70;99.90
4366;DHT22;2196;47.422;9.656;2024-01-10T10:13:24;0.90;99.90
4366;DHT22;2196;47.422;9.656;2024-01-10T10:15:58;1.00;99.90
4366;DHT22;2196;47.422;9.656;2024-01-10T10:18:25;1.00;99.90
4366;DHT22;2196;47.422;9.656;2024-01-10T10:21:07;1.10;99.90
4366;DHT22;2196;47.422;9.656;2024-01-10T10:23:35;1.00;99.90
4366;DHT22;2196;47.422;9.656;2024-01-10T10:26:12;1.30;99.90
4366;DHT22;2196;47.422;9.656;2024-01-10T10:28:45;1.40;99.90
4366;DHT22;2196;47.422;9.656;2024-01-10T10:31:12;1.50;99.90
4366;DHT22;2196;47.422;9.656;2024-01-10T10:33:39;1.70;99.90
4366;DHT22;2196;47.422;9.656;2024-01-10T10:36:06;1.50;99.90
4366;DHT22;2196;47.422;9.656;2024-01-10T10:38:34;1.40;99.90
4366;DHT22;2196;47.422;9.656;2024-01-10T10:41:05;1.50;99.90
4366;DHT22;2196;47.422;9.656;2024-01-10T10:43:35;1.70;99.90
4366;DHT22;2196;47.422;9.656;2024-01-10T10:46:04;1.60;99.90
4366;DHT22;2196;47.422;9.656;2024-01-10T10:48:33;1.70;99.90
4366;DHT22;2196;47.422;9.656;2024-01-10T10:51:05;1.60;99.90
4366;DHT22;2196;47.422;9.656;2024-01-10T10:56:03;1.40;99.90
4366;DHT22;2196;47.422;9.656;2024-01-10T10:58:35;1.50;99.90
4366;DHT22;2196;47.422;9.656;2024-01-10T11:01:06;1.40;99.90
4366;DHT22;2196;47.422;9.656;2024-01-10T11:03:35;1.30;99.90
4366;DHT22;2196;47.422;9.656;2024-01-10T11:06:04;1.30;99.90
4366;DHT22;2196;47.422;9.656;2024-01-10T11:08:35;1.40;99.90
4366;DHT22;2196;47.422;9.656;2024-01-10T11:11:04;1.70;99.90
4366;DHT22;2196;47.422;9.656;2024-01-10T11:19:09;1.80;99.90
4366;DHT22;2196;47.422;9.656;2024-01-10T11:21:50;2.00;99.90
4366;DHT22;2196;47.422;9.656;2024-01-10T11:26:50;2.40;99.90
4366;DHT22;2196;47.422;9.656;2024-01-10T11:29:18;2.30;99.90
4366;DHT22;2196;47.422;9.656;2024-01-10T11:31:50;2.20;99.90
4366;DHT22;2196;47.422;9.656;2024-01-10T11:34:24;2.10;99.90
4366;DHT22;2196;47.422;9.656;2024-01-10T11:37:10;2.40;99.90
4366;DHT22;2196;47.422;9.656;2024-01-10T11:39:37;2.40;99.90
4366;DHT22;2196;47.422;9.656;2024-01-10T11:42:08;2.50;99.90
4366;DHT22;2196;47.422;9.656;2024-01-10T11:44:47;2.20;99.90
4366;DHT22;2196;47.422;9.656;2024-01-10T11:47:15;2.00;99.90
4366;DHT22;2196;47.422;9.656;2024-01-10T11:49:54;2.30;99.90
4366;DHT22;2196;47.422;9.656;2024-01-10T11:59:51;1.80;99.90
4366;DHT22;2196;47.422;9.656;2024-01-10T12:02:19;2.00;99.90
4366;DHT22;2196;47.422;9.656;2024-01-10T12:04:46;2.00;99.90
4366;DHT22;2196;47.422;9.656;2024-01-10T12:07:14;2.30;99.90
4366;DHT22;2196;47.422;9.656;2024-01-10T12:17:05;2.10;99.90
4366;DHT22;2196;47.422;9.656;2024-01-10T12:19:34;2.20;99.90
4366;DHT22;2196;47.422;9.656;2024-01-10T12:22:04;2.00;99.90
4366;DHT22;2196;47.422;9.656;2024-01-10T12:24:32;2.10;99.90
4366;DHT22;2196;47.422;9.656;2024-01-10T12:26:59;2.20;99.90
4366;DHT22;2196;47.422;9.656;2024-01-10T12:29:26;2.40;99.90
4366;DHT22;2196;47.422;9.656;2024-01-10T12:31:53;2.50;99.90
4366;DHT22;2196;47.422;9.656;2024-01-10T12:34:21;2.30;99.90
4366;DHT22;2196;47.422;9.656;2024-01-10T12:36:48;2.30;99.90
4366;DHT22;2196;47.422;9.656;2024-01-10T12:39:15;2.10;99.90
4366;DHT22;2196;47.422;9.656;2024-01-10T12:41:43;2.30;99.90
4366;DHT22;2196;47.422;9.656;2024-01-10T12:44:11;2.20;99.90
4366;DHT22;2196;47.422;9.656;2024-01-10T12:46:50;2.40;99.90
4366;DHT22;2196;47.422;9.656;2024-01-10T12:49:18;2.40;99.90
4366;DHT22;2196;47.422;9.656;2024-01-10T12:51:47;2.40;99.90
4366;DHT22;2196;47.422;9.656;2024-01-10T12:56:42;2.10;99.90
4366;DHT22;2196;47.422;9.656;2024-01-10T12:59:09;2.00;99.90
4366;DHT22;2196;47.422;9.656;2024-01-10T13:01:36;2.00;99.90
4366;DHT22;2196;47.422;9.656;2024-01-10T13:04:04;2.00;99.90
4366;DHT22;2196;47.422;9.656;2024-01-10T13:06:31;1.90;99.90
4366;DHT22;2196;47.422;9.656;2024-01-10T13:08:59;2.10;99.90
4366;DHT22;2196;47.422;9.656;2024-01-10T13:11:26;2.10;99.90
4366;DHT22;2196;47.422;9.656;2024-01-10T13:13:53;2.00;99.90
4366;DHT22;2196;47.422;9.656;2024-01-10T13:16:20;2.30;99.90
4366;DHT22;2196;47.422;9.656;2024-01-10T13:18:47;2.00;99.90
4366;DHT22;2196;47.422;9.656;2024-01-10T13:21:16;2.20;99.90
4366;DHT22;2196;47.422;9.656;2024-01-10T13:23:43;2.10;99.90
4366;DHT22;2196;47.422;9.656;2024-01-10T13:26:12;2.30;99.90
4366;DHT22;2196;47.422;9.656;2024-01-10T13:28:40;2.10;99.90
4366;DHT22;2196;47.422;9.656;2024-01-10T13:31:07;2.00;99.90
4366;DHT22;2196;47.422;9.656;2024-01-10T13:33:34;1.90;99.90
4366;DHT22;2196;47.422;9.656;2024-01-10T13:36:02;2.10;99.90
4366;DHT22;2196;47.422;9.656;2024-01-10T13:38:30;2.00;99.90
4366;DHT22;2196;47.422;9.656;2024-01-10T13:40:57;1.90;99.90
4366;DHT22;2196;47.422;9.656;2024-01-10T13:43:25;2.00;99.90
4366;DHT22;2196;47.422;9.656;2024-01-10T13:45:52;2.00;99.90
4366;DHT22;2196;47.422;9.656;2024-01-10T13:48:19;2.10;99.90
4366;DHT22;2196;47.422;9.656;2024-01-10T13:50:45;2.30;99.90
4366;DHT22;2196;47.422;9.656;2024-01-10T14:10:26;2.10;99.90
4366;DHT22;2196;47.422;9.656;2024-01-10T14:12:53;2.00;99.90
4366;DHT22;2196;47.422;9.656;2024-01-10T14:17:48;1.90;99.90
4366;DHT22;2196;47.422;9.656;2024-01-10T14:20:17;2.20;99.90
4366;DHT22;2196;47.422;9.656;2024-01-10T14:22:44;2.20;99.90
4366;DHT22;2196;47.422;9.656;2024-01-10T14:25:11;2.10;99.90
4366;DHT22;2196;47.422;9.656;2024-01-10T14:27:38;2.00;99.90
4366;DHT22;2196;47.422;9.656;2024-01-10T14:30:06;2.20;99.90
4366;DHT22;2196;47.422;9.656;2024-01-10T14:32:35;2.10;99.90
4366;DHT22;2196;47.422;9.656;2024-01-10T14:35:04;1.90;99.90
4366;DHT22;2196;47.422;9.656;2024-01-10T14:37:32;1.50;99.90
4366;DHT22;2196;47.422;9.656;2024-01-10T14:42:29;1.40;99.90
4366;DHT22;2196;47.422;9.656;2024-01-10T14:44:56;1.50;99.90
4366;DHT22;2196;47.422;9.656;2024-01-10T14:47:23;1.40;99.90
4366;DHT22;2196;47.422;9.656;2024-01-10T14:49:50;1.40;99.90
4366;DHT22;2196;47.422;9.656;2024-01-10T14:52:19;1.40;99.90
4366;DHT22;2196;47.422;9.656;2024-01-10T14:54:46;1.40;99.90
4366;DHT22;2196;47.422;9.656;2024-01-10T14:57:14;1.30;99.90
4366;DHT22;2196;47.422;9.656;2024-01-10T15:02:09;1.40;99.90
4366;DHT22;2196;47.422;9.656;2024-01-10T15:04:39;1.10;99.90
4366;DHT22;2196;47.422;9.656;2024-01-10T15:07:09;1.10;99.90
4366;DHT22;2196;47.422;9.656;2024-01-10T15:09:38;1.10;99.90
4366;DHT22;2196;47.422;9.656;2024-01-10T15:12:05;1.50;99.90
4366;DHT22;2196;47.422;9.656;2024-01-10T15:14:36;1.00;99.90
4366;DHT22;2196;47.422;9.656;2024-01-10T15:17:08;0.90;99.90
4366;DHT22;2196;47.422;9.656;2024-01-10T15:19:35;0.90;99.90
4366;DHT22;2196;47.422;9.656;2024-01-10T15:22:03;0.80;99.90
4366;DHT22;2196;47.422;9.656;2024-01-10T15:24:30;0.80;99.90
4366;DHT22;2196;47.422;9.656;2024-01-10T15:26:58;0.80;99.90
4366;DHT22;2196;47.422;9.656;2024-01-10T15:29:27;0.70;99.90
4366;DHT22;2196;47.422;9.656;2024-01-10T15:31:54;0.60;99.90
4366;DHT22;2196;47.422;9.656;2024-01-10T15:34:21;0.50;99.90
4366;DHT22;2196;47.422;9.656;2024-01-10T15:36:50;0.50;99.90
4366;DHT22;2196;47.422;9.656;2024-01-10T15:39:17;0.50;99.90
4366;DHT22;2196;47.422;9.656;2024-01-10T15:41:46;0.40;99.90
4366;DHT22;2196;47.422;9.656;2024-01-10T15:44:14;0.40;99.90
4366;DHT22;2196;47.422;9.656;2024-01-10T15:46:41;0.40;99.90
4366;DHT22;2196;47.422;9.656;2024-01-10T15:49:08;0.40;99.90
4366;DHT22;2196;47.422;9.656;2024-01-10T15:51:35;0.30;99.90
4366;DHT22;2196;47.422;9.656;2024-01-10T15:54:02;0.40;99.90
4366;DHT22;2196;47.422;9.656;2024-01-10T15:56:29;0.40;99.90
4366;DHT22;2196;47.422;9.656;2024-01-10T15:58:57;0.30;99.90
4366;DHT22;2196;47.422;9.656;2024-01-10T16:01:25;0.30;99.90
4366;DHT22;2196;47.422;9.656;2024-01-10T16:03:52;0.30;99.90
4366;DHT22;2196;47.422;9.656;2024-01-10T16:06:19;0.30;99.90
4366;DHT22;2196;47.422;9.656;2024-01-10T16:08:46;0.30;99.90
4366;DHT22;2196;47.422;9.656;2024-01-10T16:11:13;0.20;99.90
4366;DHT22;2196;47.422;9.656;2024-01-10T16:13:40;0.10;99.90
4366;DHT22;2196;47.422;9.656;2024-01-10T16:16:07;0.10;99.90
4366;DHT22;2196;47.422;9.656;2024-01-10T16:18:36;0.10;99.90
4366;DHT22;2196;47.422;9.656;2024-01-10T16:21:04;0.10;99.90
4366;DHT22;2196;47.422;9.656;2024-01-10T16:23:31;0.10;99.90
4366;DHT22;2196;47.422;9.656;2024-01-10T16:25:58;0.10;99.90
4366;DHT22;2196;47.422;9.656;2024-01-10T16:28:25;0.20;99.90
4366;DHT22;2196;47.422;9.656;2024-01-10T16:30:52;0.00;99.90
4366;DHT22;2196;47.422;9.656;2024-01-10T16:33:19;0.00;99.90
4366;DHT22;2196;47.422;9.656;2024-01-10T16:35:48;0.00;99.90
4366;DHT22;2196;47.422;9.656;2024-01-10T16:38:14;0.00;99.90
4366;DHT22;2196;47.422;9.656;2024-01-10T16:40:42;-0.10;99.90
4366;DHT22;2196;47.422;9.656;2024-01-10T16:43:09;-0.10;99.90
4366;DHT22;2196;47.422;9.656;2024-01-10T16:45:36;0.00;99.90
4366;DHT22;2196;47.422;9.656;2024-01-10T16:48:03;-0.10;99.90
4366;DHT22;2196;47.422;9.656;2024-01-10T16:50:30;-0.10;99.90
4366;DHT22;2196;47.422;9.656;2024-01-10T16:52:59;-0.30;99.90
4366;DHT22;2196;47.422;9.656;2024-01-10T16:55:26;-0.10;99.90
4366;DHT22;2196;47.422;9.656;2024-01-10T16:57:53;-0.10;99.90
4366;DHT22;2196;47.422;9.656;2024-01-10T17:00:20;-0.30;99.90
4366;DHT22;2196;47.422;9.656;2024-01-10T17:02:48;-0.30;99.90
4366;DHT22;2196;47.422;9.656;2024-01-10T17:05:15;-0.30;99.90